createdAt,value
2023-04-26T00:02:19.403Z,5.95
2023-04-26T00:07:23.674Z,5.68
2023-04-26T00:12:25.699Z,5.60
2023-04-26T00:17:27.348Z,6.30
2023-04-26T00:22:28.973Z,5.20
2023-04-26T00:27:30.618Z,5.22
2023-04-26T00:32:32.341Z,5.05
2023-04-26T00:37:34.067Z,5.78
2023-04-26T00:42:36.007Z,5.90
2023-04-26T00:47:38.477Z,6.10
2023-04-26T00:52:40.424Z,6.30
2023-04-26T00:57:42.112Z,6.53
2023-04-26T01:02:44.023Z,6.75
2023-04-26T01:07:46.863Z,6.97
2023-04-26T01:12:48.900Z,6.72
2023-04-26T01:17:52.779Z,7.13
2023-04-26T01:22:54.429Z,6.97
2023-04-26T01:27:56.096Z,7.30
2023-04-26T01:33:00.056Z,6.55
2023-04-26T01:38:01.815Z,6.75
2023-04-26T01:43:03.401Z,6.22
2023-04-26T01:48:05.647Z,6.85
2023-04-26T01:53:07.448Z,7.68
2023-04-26T01:58:10.568Z,6.40
2023-04-26T02:03:12.339Z,6.93
2023-04-26T02:08:14.191Z,6.85
2023-04-26T02:13:15.880Z,6.78
2023-04-26T02:18:17.932Z,6.72
2023-04-26T02:23:19.827Z,6.10
2023-04-26T02:28:21.492Z,5.68
2023-04-26T02:33:23.373Z,6.20
2023-04-26T02:38:28.430Z,6.40
2023-04-26T02:43:32.320Z,5.70
2023-04-26T02:48:33.952Z,6.45
2023-04-26T02:53:35.930Z,5.53
2023-04-26T02:58:37.920Z,5.82
2023-04-26T03:03:40.563Z,5.75
2023-04-26T03:08:42.374Z,5.68
2023-04-26T03:13:44.110Z,4.97
2023-04-26T03:18:46.135Z,6.03
2023-04-26T03:23:47.971Z,5.70
2023-04-26T03:28:50.631Z,6.10
2023-04-26T03:33:52.678Z,7.07
2023-04-26T03:38:54.886Z,7.28
2023-04-26T03:43:56.880Z,6.63
2023-04-26T03:48:58.678Z,6.20
2023-04-26T03:54:00.319Z,6.40
2023-04-26T03:59:02.426Z,7.10
2023-04-26T04:04:04.459Z,6.60
2023-04-26T04:09:06.737Z,6.68
2023-04-26T04:14:08.829Z,6.38
2023-04-26T04:19:10.909Z,5.47
2023-04-26T04:24:12.906Z,4.78
2023-04-26T04:29:15.929Z,5.25
2023-04-26T04:34:19.014Z,5.35
2023-04-26T04:39:21.487Z,5.25
2023-04-26T04:44:24.257Z,4.57
2023-04-26T04:49:28.945Z,4.72
2023-04-26T04:54:30.888Z,4.10
2023-04-26T04:59:33.394Z,3.80
2023-04-26T05:04:35.894Z,3.63
2023-04-26T05:09:38.607Z,3.63
2023-04-26T05:14:41.663Z,3.42
2023-04-26T05:19:43.528Z,3.40
2023-04-26T05:24:46.836Z,3.55
2023-04-26T05:29:49.918Z,3.45
2023-04-26T05:35:20.787Z,3.78
2023-04-26T05:40:22.479Z,3.35
2023-04-26T05:45:24.804Z,3.13
2023-04-26T05:50:27.079Z,2.53
2023-04-26T05:55:28.777Z,3.90
2023-04-26T06:00:30.611Z,3.03
2023-04-26T06:05:32.679Z,3.38
2023-04-26T06:10:35.937Z,4.00
2023-04-26T06:15:37.675Z,3.22
2023-04-26T06:20:40.339Z,3.25
2023-04-26T06:25:45.680Z,3.35
2023-04-26T06:30:48.774Z,3.60
2023-04-26T06:35:50.748Z,3.60
2023-04-26T06:40:53.842Z,3.50
2023-04-26T06:45:55.559Z,3.05
2023-04-26T06:50:57.631Z,3.50
2023-04-26T06:55:59.380Z,3.85
2023-04-26T07:01:01.275Z,3.47
2023-04-26T07:06:02.943Z,3.85
2023-04-26T07:11:10.367Z,3.33
2023-04-26T07:16:12.084Z,3.47
2023-04-26T07:21:14.479Z,3.67
2023-04-26T07:26:16.185Z,3.75
2023-04-26T07:31:18.419Z,2.85
2023-04-26T07:36:20.393Z,3.00
2023-04-26T07:41:23.275Z,3.53
2023-04-26T07:46:25.275Z,2.78
2023-04-26T07:51:27.743Z,2.90
2023-04-26T07:56:29.364Z,2.35
2023-04-26T08:01:30.982Z,2.30
2023-04-26T08:06:33.287Z,2.70
2023-04-26T08:11:35.037Z,2.38
2023-04-26T08:16:36.887Z,2.60
2023-04-26T08:21:38.734Z,2.30
2023-04-26T08:26:41.169Z,2.55
2023-04-26T08:31:42.943Z,2.80
2023-04-26T08:36:45.868Z,2.40
2023-04-26T08:41:53.074Z,2.40
2023-04-26T08:46:57.668Z,2.30
2023-04-26T08:52:01.053Z,2.30
2023-04-26T08:57:03.367Z,2.40
2023-04-26T09:02:07.202Z,2.00
2023-04-26T09:07:12.452Z,2.20
2023-04-26T09:12:16.166Z,1.70
2023-04-26T09:17:36.838Z,1.75
2023-04-26T09:22:38.922Z,1.73
2023-04-26T09:27:46.206Z,1.70
2023-04-26T09:32:57.209Z,1.40
2023-04-26T09:38:13.587Z,1.65
2023-04-26T09:43:21.075Z,1.60
2023-04-26T09:48:30.395Z,1.67
2023-04-26T09:53:36.949Z,1.67
2023-04-26T09:58:40.643Z,1.90
2023-04-26T10:03:43.936Z,1.95
2023-04-26T10:08:45.813Z,2.15
2023-04-26T10:13:50.935Z,2.33
2023-04-26T10:18:52.776Z,2.28
2023-04-26T10:23:54.842Z,2.78
2023-04-26T10:29:02.108Z,2.22
2023-04-26T10:34:21.458Z,2.60
2023-04-26T10:39:23.414Z,1.55
2023-04-26T10:44:40.278Z,2.15
2023-04-26T10:49:46.859Z,2.35
2023-04-26T10:54:52.521Z,2.20
2023-04-26T11:00:16.934Z,2.83
2023-04-26T11:05:42.716Z,3.50
2023-04-26T11:10:51.019Z,1.90
2023-04-26T11:15:54.553Z,2.10
2023-04-26T11:20:57.390Z,1.90
2023-04-26T11:26:09.487Z,2.08
2023-04-26T11:31:11.652Z,2.60
2023-04-26T11:36:14.197Z,1.98
2023-04-26T11:41:15.991Z,2.08
2023-04-26T11:46:20.846Z,1.38
2023-04-26T11:51:23.999Z,2.17
2023-04-26T11:56:26.064Z,2.20
2023-04-26T12:01:29.828Z,1.83
2023-04-26T12:06:46.339Z,2.13
2023-04-26T12:11:58.967Z,1.95
2023-04-26T12:17:03.079Z,1.75
2023-04-26T12:22:06.055Z,1.75
2023-04-26T12:27:08.012Z,2.40
2023-04-26T12:32:09.708Z,2.03
2023-04-26T12:37:12.025Z,1.60
2023-04-26T12:42:13.640Z,1.70
2023-04-26T12:47:15.523Z,1.60
2023-04-26T12:52:17.123Z,1.50
2023-04-26T12:57:20.888Z,1.55
2023-04-26T13:02:23.183Z,1.58
2023-04-26T13:07:25.072Z,1.30
2023-04-26T13:12:27.715Z,1.60
2023-04-26T13:17:29.325Z,1.60
2023-04-26T13:22:31.528Z,1.50
2023-04-26T13:27:33.151Z,1.30
2023-04-26T13:32:35.065Z,1.52
2023-04-26T13:37:37.030Z,1.40
2023-04-26T13:42:39.483Z,1.80
2023-04-26T13:47:41.694Z,1.50
2023-04-26T13:52:43.373Z,1.58
2023-04-26T13:57:45.352Z,1.63
2023-04-26T14:02:47.407Z,1.55
2023-04-26T14:07:49.133Z,1.42
2023-04-26T14:12:50.758Z,1.90
2023-04-26T14:17:52.404Z,2.30
2023-04-26T14:22:54.180Z,1.52
2023-04-26T14:27:55.892Z,1.20
2023-04-26T14:32:57.885Z,1.27
2023-04-26T14:37:59.645Z,1.15
2023-04-26T14:43:01.289Z,1.20
2023-04-26T14:48:03.802Z,1.10
2023-04-26T14:53:05.760Z,1.33
2023-04-26T14:58:07.935Z,1.08
2023-04-26T15:03:09.771Z,1.20
2023-04-26T15:08:11.587Z,1.20
2023-04-26T15:13:13.326Z,1.27
2023-04-26T15:18:15.212Z,0.95
2023-04-26T15:23:17.163Z,1.45
2023-04-26T15:28:18.997Z,1.75
2023-04-26T15:33:20.811Z,1.30
2023-04-26T15:38:23.201Z,1.70
2023-04-26T15:43:25.261Z,1.90
2023-04-26T15:48:26.947Z,1.80
2023-04-26T15:53:28.797Z,1.70
2023-04-26T15:58:30.812Z,2.13
2023-04-26T16:03:32.526Z,1.70
2023-04-26T16:13:40.720Z,1.80
2023-04-26T16:18:43.814Z,1.50
2023-04-26T16:23:45.537Z,1.80
2023-04-26T16:28:47.273Z,1.40
2023-04-26T16:33:48.878Z,1.30
2023-04-26T16:38:50.950Z,1.80
2023-04-26T16:43:54.226Z,1.40
2023-04-26T16:48:55.989Z,1.42
2023-04-26T16:53:57.922Z,1.30
2023-04-26T16:58:59.780Z,1.63
2023-04-26T17:04:01.995Z,1.50
2023-04-26T17:09:04.530Z,2.00
2023-04-26T17:14:06.263Z,1.92
2023-04-26T17:19:08.287Z,2.38
2023-04-26T17:24:09.869Z,1.63
2023-04-26T17:29:11.636Z,2.00
2023-04-26T17:34:13.252Z,1.75
2023-04-26T17:39:15.058Z,1.60
2023-04-26T17:44:16.736Z,1.90
2023-04-26T17:49:18.409Z,1.80
2023-04-26T17:54:20.118Z,2.22
2023-04-26T17:59:21.969Z,2.20
2023-04-26T18:04:23.949Z,2.47
2023-04-26T18:09:26.105Z,2.35
2023-04-26T18:14:27.970Z,2.08
2023-04-26T18:19:29.794Z,1.95
2023-04-26T18:24:31.589Z,2.17
2023-04-26T18:29:33.496Z,1.85
2023-04-26T18:34:35.494Z,2.00
2023-04-26T18:39:37.131Z,2.45
2023-04-26T18:44:39.088Z,2.10
2023-04-26T18:49:40.750Z,2.08
2023-04-26T18:54:42.388Z,2.67
2023-04-26T18:59:44.187Z,2.80
2023-04-26T19:04:49.732Z,2.90
2023-04-26T19:09:54.467Z,2.65
2023-04-26T19:14:56.844Z,2.95
2023-04-26T19:19:58.750Z,3.25
2023-04-26T19:25:01.124Z,3.53
2023-04-26T19:30:03.242Z,3.85
2023-04-26T19:35:06.143Z,3.30
2023-04-26T19:40:10.056Z,2.40
2023-04-26T19:45:12.026Z,2.75
2023-04-26T19:50:13.708Z,2.20
2023-04-26T19:55:15.384Z,2.20
2023-04-26T20:00:17.162Z,2.20
2023-04-26T20:05:18.937Z,2.70
2023-04-26T20:10:23.844Z,2.42
2023-04-26T20:15:26.565Z,2.53
2023-04-26T20:20:28.243Z,3.35
2023-04-26T20:25:29.953Z,3.05
2023-04-26T20:30:33.700Z,3.42
2023-04-26T20:35:35.638Z,3.05
2023-04-26T20:40:37.695Z,2.60
2023-04-26T20:45:40.711Z,2.72
2023-04-26T20:50:42.440Z,2.88
2023-04-26T20:55:44.073Z,2.80
2023-04-26T21:00:49.410Z,3.30
2023-04-26T21:05:51.366Z,2.88
2023-04-26T21:10:52.981Z,3.00
2023-04-26T21:15:54.658Z,3.42
2023-04-26T21:20:56.958Z,3.70
2023-04-26T21:25:58.824Z,3.72
2023-04-26T21:31:07.088Z,3.80
2023-04-26T21:36:09.351Z,3.53
2023-04-26T21:41:10.964Z,3.10
2023-04-26T21:46:12.861Z,2.92
2023-04-26T21:51:14.561Z,5.38
2023-04-26T21:56:16.475Z,4.45
2023-04-26T22:01:18.298Z,3.83
2023-04-26T22:06:20.364Z,3.47
2023-04-26T22:11:22.249Z,4.35
2023-04-26T22:16:23.927Z,3.83
2023-04-26T22:21:27.030Z,3.80
2023-04-26T22:26:28.724Z,3.92
2023-04-26T22:31:30.343Z,4.20
2023-04-26T22:36:32.617Z,3.72
2023-04-26T22:41:34.414Z,3.63
2023-04-26T22:46:36.319Z,3.80
2023-04-26T22:51:37.884Z,3.90
2023-04-26T22:56:39.592Z,3.53
2023-04-26T23:01:41.298Z,2.88
2023-04-26T23:06:44.413Z,3.33
2023-04-26T23:11:46.227Z,4.22
2023-04-26T23:16:47.888Z,3.60
2023-04-26T23:21:49.541Z,3.83
2023-04-26T23:26:51.267Z,4.50
2023-04-26T23:31:54.550Z,4.13
2023-04-26T23:36:56.312Z,4.38
2023-04-26T23:41:57.901Z,4.93
2023-04-26T23:46:59.593Z,4.03
2023-04-26T23:52:01.441Z,3.83
2023-04-26T23:57:04.528Z,3.42
